Racecast

Nathaniel (Nate) Keck

Temperance Bedford (MI) · 10 · SECMI D1MONROE · Compare head to head

Athlete rating 105.2 2025 XC season
Best race 104.6 XC
Races 33
Seasons 3 2024 — 2026

RankedNation #76508·MI #4901·MI D1 #2787·SEC #236·Team #66 ?

Cross Country

2025 XC 97.7

Temperance Bedford (MI) · Grade 10

Date Meet Event Result Place Rating Difficulty PR/SR Flags
2025-10-16 Hudson Mills Metropark - OFFICIAL 5000m 21:24.4 116th · 8th on team 101.5 +0.036 ★CR CSR
2025-10-11 Munson Park 5000m 21:23.5 30th · 5th on team 103.2 +0.054 ★CR CSR
2025-09-27 Lake Erie Metro Park OFFICIAL 5000m 21:28.5 29th · 3rd on team 103.8 +0.055 ★CR CSR RSR
2025-09-25 Indian Creek OFFICIAL 5000m 21:17.6 68th · 7th on team 101.8 +0.039 ★PR ★CR SR CSR RSR
2025-09-19 Ella Sharp Park OFFICIAL 5000m 22:03.5 160th · 5th on team 98.9 +0.038 ★CR SR CSR RSR
2025-09-09 Willow Metropark OFFICIAL 5000m 22:33.3 95th · 8th on team 97.8 +0.048 ★CR CSR RSR
2025-08-30 Bowling Green 5000m 22:10.2 142nd · 7th on team 90.0 -0.046 ★CR SR CSR
2025-08-30 BGSU 5000m 22:10.2 142nd · 7th on team 90.6 -0.038 ★CR CSR
2025-08-22 Saline High School 5000m 23:42.9 37th · 11th on team 91.9 +0.039 ★CR SR CSR RSR

2024 XC 91.4

Temperance Bedford (MI) · Grade 9

Date Meet Event Result Place Rating Difficulty PR/SR Flags
2024-10-26 Lake Erie Metro Park OFFICIAL 5000m 21:39.1 125th · 13th on team 102.3 +0.055 CR CSR
2024-10-17 Hudson Mills Metropark - OFFICIAL 5000m 23:58.83 156th · 19th on team 91.0 +0.036 CR CSR
2024-10-12 Munson Park 5000m 22:49.7 59th · 9th on team 97.1 +0.054 CR CSR
2024-09-28 Lake Erie Metro Park OFFICIAL 5000m 23:02.8 94th · 19th on team 96.1 +0.055 CR CSR
2024-09-24 Pioneer HS 5000m 24:49.3 103rd · 15th on team 90.5 +0.067 ★CR CSR
2024-09-10 Willow Metropark OFFICIAL 5000m 26:01.1 115th · 12th on team 85.0 +0.048 CR CSR
2024-09-07 Hedges Boyer Park 5000m 24:43.8 388th · 19th on team 81.8 -0.036 ★CR CSR
2024-08-31 BGSU 5000m 27:11.7 216th · 21st on team 74.2 -0.038 CR CSR
2024-08-23 Ford Field/EE Ice Arena(LIVONIA) OFFICIAL 5000m 21:30.9 99th · 8th on team 104.6 +0.070 PR ★CR ★R SR CSR RSR

Track & Field

2026 TF 89.9

Temperance Bedford (MI) · Grade 10

Date Meet Event Result Place Rating Difficulty PR/SR Flags
2026-04-28 SEC-HS: Bedford @ Monroe 800m 2:46.19 17th · 10th on team 90.9 -0.032
2026-04-28 SEC-HS: Bedford @ Monroe 1600m 6:10.31 19th · 12th on team 91.1 -0.032 ★PR SR RSR
2026-04-20 SEC-HS: Bedford @ Pioneer 1600m 6:12.25 20th · 9th on team 91.0 -0.028 PR SR
2026-04-20 SEC-HS: Bedford @ Pioneer 800m 2:51.85 12th · 8th on team 88.2 -0.028
2026-04-14 SEC-HS: Huron & Saline at Bedford 1600m 6:15.81 36th · 11th on team 89.7 -0.033 PR SR RSR
2026-04-14 SEC-HS: Huron & Saline at Bedford 800m 2:45.68 26th · 10th on team 91.1 -0.033 ★PR SR RSR
2026-04-07 SEC-HS: Bedford & Dexter @ Skyline 1600m 6:22.99 50th · 14th on team 88.0 -0.033 PR SR RSR
2026-04-07 SEC-HS: Bedford & Dexter @ Skyline 800m 2:48.45 45th · 11th on team 89.5 -0.033 PR SR RSR

2025 TF 85.5

Temperance Bedford (MI) · Grade 9

Date Meet Event Result Place Rating Difficulty PR/SR Flags
2025-05-22 Dundee Jim Beck Freshman Invite 1600m 6:34.86 25th · 3rd on team 86.2 -0.026 PR SR RSR
2025-05-22 Dundee Jim Beck Freshman Invite 800m 2:54.44 29th · 4th on team 87.5 -0.026 PR SR RSR
2025-04-29 SEC-HS: Lincoln @ Bedford 1600m 6:41.04 15th · 13th on team 84.7 -0.033
2025-04-29 SEC-HS: Lincoln @ Bedford 800m 3:00.11 10th · 9th on team 84.4 -0.033
2025-04-22 SEC-HS: Bedford & Pioneer @ Monroe 800m 2:55.35 31st · 13th on team 85.8 -0.032 PR SR
2025-04-15 SEC-HS: Bedford & Dexter @ Skyline 1600m 6:35.98 49th · 10th on team 85.8 -0.033 PR SR RSR
2025-04-07 SEC-HS: Huron & Saline @ Bedford 800m 2:59.81 38th · 14th on team 83.9 -0.033 PR SR RSR